sensor_id;sensor_type;location;lat;lon;timestamp;temperature;humidity
1958;DHT22;979;51.076;13.748;2023-03-14T00:28:45;13.20;83.80
1958;DHT22;979;51.076;13.748;2023-03-14T00:31:33;13.30;83.90
1958;DHT22;979;51.076;13.748;2023-03-14T00:34:14;13.30;84.50
1958;DHT22;979;51.076;13.748;2023-03-14T00:37:08;13.30;83.90
1958;DHT22;979;51.076;13.748;2023-03-14T00:39:52;13.40;84.00
1958;DHT22;979;51.076;13.748;2023-03-14T00:42:49;13.20;84.10
1958;DHT22;979;51.076;13.748;2023-03-14T00:45:41;13.10;84.20
1958;DHT22;979;51.076;13.748;2023-03-14T00:48:39;13.10;84.10
1958;DHT22;979;51.076;13.748;2023-03-14T00:51:20;13.10;83.90
1958;DHT22;979;51.076;13.748;2023-03-14T00:53:59;13.10;84.30
1958;DHT22;979;51.076;13.748;2023-03-14T00:57:04;13.10;84.30
1958;DHT22;979;51.076;13.748;2023-03-14T00:59:43;13.10;84.30
1958;DHT22;979;51.076;13.748;2023-03-14T01:02:24;13.10;84.20
1958;DHT22;979;51.076;13.748;2023-03-14T01:05:08;13.20;84.50
1958;DHT22;979;51.076;13.748;2023-03-14T01:08:02;13.10;84.60
1958;DHT22;979;51.076;13.748;2023-03-14T01:10:40;13.10;84.40
1958;DHT22;979;51.076;13.748;2023-03-14T01:13:34;13.10;84.30
1958;DHT22;979;51.076;13.748;2023-03-14T01:16:32;13.00;84.20
1958;DHT22;979;51.076;13.748;2023-03-14T01:19:33;13.10;84.40
1958;DHT22;979;51.076;13.748;2023-03-14T01:22:10;13.30;84.40
1958;DHT22;979;51.076;13.748;2023-03-14T01:25:14;13.10;84.40
1958;DHT22;979;51.076;13.748;2023-03-14T01:27:53;13.10;84.40
1958;DHT22;979;51.076;13.748;2023-03-14T01:30:35;13.10;84.60
1958;DHT22;979;51.076;13.748;2023-03-14T01:33:18;13.10;84.60
1958;DHT22;979;51.076;13.748;2023-03-14T01:36:21;13.10;84.60
1958;DHT22;979;51.076;13.748;2023-03-14T01:39:11;13.10;84.20
1958;DHT22;979;51.076;13.748;2023-03-14T01:41:47;13.10;84.60
1958;DHT22;979;51.076;13.748;2023-03-14T01:44:57;13.20;84.50
1958;DHT22;979;51.076;13.748;2023-03-14T01:47:37;13.10;84.20
1958;DHT22;979;51.076;13.748;2023-03-14T01:50:23;13.20;84.60
1958;DHT22;979;51.076;13.748;2023-03-14T01:53:08;13.20;84.30
1958;DHT22;979;51.076;13.748;2023-03-14T01:56:07;13.20;84.30
1958;DHT22;979;51.076;13.748;2023-03-14T01:58:51;13.20;84.30
1958;DHT22;979;51.076;13.748;2023-03-14T02:01:49;13.20;83.90
1958;DHT22;979;51.076;13.748;2023-03-14T02:04:41;13.30;84.00
1958;DHT22;979;51.076;13.748;2023-03-14T02:07:33;13.40;83.90
1958;DHT22;979;51.076;13.748;2023-03-14T02:10:45;13.30;83.90
1958;DHT22;979;51.076;13.748;2023-03-14T02:13:52;13.10;83.80
1958;DHT22;979;51.076;13.748;2023-03-14T02:16:39;13.30;83.70
1958;DHT22;979;51.076;13.748;2023-03-14T02:19:51;13.30;83.70
1958;DHT22;979;51.076;13.748;2023-03-14T02:22:39;13.30;83.40
1958;DHT22;979;51.076;13.748;2023-03-14T02:25:26;13.20;83.70
1958;DHT22;979;51.076;13.748;2023-03-14T02:28:10;13.00;83.40
1958;DHT22;979;51.076;13.748;2023-03-14T02:30:50;13.10;83.60
1958;DHT22;979;51.076;13.748;2023-03-14T02:33:46;13.00;83.80
1958;DHT22;979;51.076;13.748;2023-03-14T02:36:32;13.00;83.60
1958;DHT22;979;51.076;13.748;2023-03-14T02:39:31;13.00;83.10
1958;DHT22;979;51.076;13.748;2023-03-14T02:42:14;13.10;83.40
1958;DHT22;979;51.076;13.748;2023-03-14T02:47:57;12.90;83.10
1958;DHT22;979;51.076;13.748;2023-03-14T02:53:47;13.00;83.50
1958;DHT22;979;51.076;13.748;2023-03-14T02:56:34;12.80;83.00
1958;DHT22;979;51.076;13.748;2023-03-14T02:59:15;12.80;83.10
1958;DHT22;979;51.076;13.748;2023-03-14T03:02:11;13.20;83.60
1958;DHT22;979;51.076;13.748;2023-03-14T03:05:09;13.00;83.70
1958;DHT22;979;51.076;13.748;2023-03-14T03:07:58;13.10;83.40
1958;DHT22;979;51.076;13.748;2023-03-14T03:10:46;13.10;83.10
1958;DHT22;979;51.076;13.748;2023-03-14T03:13:38;13.10;83.20
1958;DHT22;979;51.076;13.748;2023-03-14T03:16:22;13.10;82.80
1958;DHT22;979;51.076;13.748;2023-03-14T03:19:13;13.20;82.70
1958;DHT22;979;51.076;13.748;2023-03-14T03:21:59;13.20;82.80
1958;DHT22;979;51.076;13.748;2023-03-14T03:24:43;13.10;82.30
1958;DHT22;979;51.076;13.748;2023-03-14T03:27:46;13.30;82.20
1958;DHT22;979;51.076;13.748;2023-03-14T03:30:29;13.20;81.90
1958;DHT22;979;51.076;13.748;2023-03-14T03:33:15;13.40;82.20
1958;DHT22;979;51.076;13.748;2023-03-14T03:36:01;13.40;81.50
1958;DHT22;979;51.076;13.748;2023-03-14T03:38:49;13.40;81.50
1958;DHT22;979;51.076;13.748;2023-03-14T03:41:50;13.40;81.40
1958;DHT22;979;51.076;13.748;2023-03-14T03:44:45;13.40;80.90
1958;DHT22;979;51.076;13.748;2023-03-14T03:50:46;13.40;80.60
1958;DHT22;979;51.076;13.748;2023-03-14T03:53:35;13.40;80.70
1958;DHT22;979;51.076;13.748;2023-03-14T03:56:50;13.40;80.80
1958;DHT22;979;51.076;13.748;2023-03-14T03:59:30;13.50;80.10
1958;DHT22;979;51.076;13.748;2023-03-14T04:02:23;13.50;79.80
1958;DHT22;979;51.076;13.748;2023-03-14T04:05:14;13.50;79.60
1958;DHT22;979;51.076;13.748;2023-03-14T04:08:26;13.60;79.30
1958;DHT22;979;51.076;13.748;2023-03-14T04:11:25;13.60;78.90
1958;DHT22;979;51.076;13.748;2023-03-14T04:14:52;13.50;79.10
1958;DHT22;979;51.076;13.748;2023-03-14T04:18:08;13.60;79.10
1958;DHT22;979;51.076;13.748;2023-03-14T04:21:00;13.60;78.70
1958;DHT22;979;51.076;13.748;2023-03-14T04:23:54;13.70;78.60
1958;DHT22;979;51.076;13.748;2023-03-14T04:26:37;13.70;78.20
1958;DHT22;979;51.076;13.748;2023-03-14T04:29:54;13.80;78.50
1958;DHT22;979;51.076;13.748;2023-03-14T04:32:58;13.70;78.10
1958;DHT22;979;51.076;13.748;2023-03-14T04:35:34;13.80;78.10
1958;DHT22;979;51.076;13.748;2023-03-14T04:38:14;13.80;77.90
1958;DHT22;979;51.076;13.748;2023-03-14T04:40:58;13.70;77.70
1958;DHT22;979;51.076;13.748;2023-03-14T04:43:35;13.70;77.10
1958;DHT22;979;51.076;13.748;2023-03-14T04:46:20;13.70;77.20
1958;DHT22;979;51.076;13.748;2023-03-14T04:49:15;13.70;76.90
1958;DHT22;979;51.076;13.748;2023-03-14T04:52:03;13.70;76.40
1958;DHT22;979;51.076;13.748;2023-03-14T04:54:57;13.80;76.20
1958;DHT22;979;51.076;13.748;2023-03-14T04:57:52;13.80;75.90
1958;DHT22;979;51.076;13.748;2023-03-14T05:00:43;13.80;75.60
1958;DHT22;979;51.076;13.748;2023-03-14T05:03:52;13.80;74.90
1958;DHT22;979;51.076;13.748;2023-03-14T05:06:54;13.80;74.40
1958;DHT22;979;51.076;13.748;2023-03-14T05:09:54;13.70;74.50
1958;DHT22;979;51.076;13.748;2023-03-14T05:13:14;13.80;74.10
1958;DHT22;979;51.076;13.748;2023-03-14T05:16:21;13.80;74.30
1958;DHT22;979;51.076;13.748;2023-03-14T05:19:14;13.80;74.10
1958;DHT22;979;51.076;13.748;2023-03-14T05:22:36;13.90;73.70
1958;DHT22;979;51.076;13.748;2023-03-14T05:25:45;13.90;74.30
1958;DHT22;979;51.076;13.748;2023-03-14T05:28:40;13.90;73.60
1958;DHT22;979;51.076;13.748;2023-03-14T05:31:43;13.90;73.40
1958;DHT22;979;51.076;13.748;2023-03-14T05:34:46;13.90;73.20
1958;DHT22;979;51.076;13.748;2023-03-14T05:37:45;14.00;72.80
1958;DHT22;979;51.076;13.748;2023-03-14T05:40:58;14.00;73.00
1958;DHT22;979;51.076;13.748;2023-03-14T05:44:37;14.00;72.70
1958;DHT22;979;51.076;13.748;2023-03-14T05:47:38;14.10;72.40
1958;DHT22;979;51.076;13.748;2023-03-14T05:53:44;13.90;72.00
1958;DHT22;979;51.076;13.748;2023-03-14T05:57:17;14.00;72.50
1958;DHT22;979;51.076;13.748;2023-03-14T06:00:48;14.20;72.40
1958;DHT22;979;51.076;13.748;2023-03-14T06:07:25;14.00;71.70
1958;DHT22;979;51.076;13.748;2023-03-14T06:10:11;14.10;72.30
1958;DHT22;979;51.076;13.748;2023-03-14T06:12:47;14.00;71.70
1958;DHT22;979;51.076;13.748;2023-03-14T06:15:22;14.00;71.60
1958;DHT22;979;51.076;13.748;2023-03-14T06:18:10;14.00;71.70
1958;DHT22;979;51.076;13.748;2023-03-14T06:21:12;14.10;71.50
1958;DHT22;979;51.076;13.748;2023-03-14T06:24:09;14.10;71.40
1958;DHT22;979;51.076;13.748;2023-03-14T06:26:49;14.20;71.10
1958;DHT22;979;51.076;13.748;2023-03-14T06:29:22;14.20;71.50
1958;DHT22;979;51.076;13.748;2023-03-14T06:31:57;14.20;71.30
1958;DHT22;979;51.076;13.748;2023-03-14T06:34:35;14.40;71.40
1958;DHT22;979;51.076;13.748;2023-03-14T06:37:20;14.30;71.00
1958;DHT22;979;51.076;13.748;2023-03-14T06:42:49;14.30;70.80
1958;DHT22;979;51.076;13.748;2023-03-14T06:45:28;14.40;70.70
1958;DHT22;979;51.076;13.748;2023-03-14T07:45:46;15.30;69.00
1958;DHT22;979;51.076;13.748;2023-03-14T07:55:42;15.30;68.80
1958;DHT22;979;51.076;13.748;2023-03-14T07:58:40;15.40;69.30
1958;DHT22;979;51.076;13.748;2023-03-14T08:01:40;15.40;68.80
1958;DHT22;979;51.076;13.748;2023-03-14T08:04:11;15.40;68.60
1958;DHT22;979;51.076;13.748;2023-03-14T08:07:16;15.40;68.60
1958;DHT22;979;51.076;13.748;2023-03-14T08:10:16;15.40;68.40
1958;DHT22;979;51.076;13.748;2023-03-14T08:13:12;15.40;68.40
1958;DHT22;979;51.076;13.748;2023-03-14T08:16:09;15.30;68.10
1958;DHT22;979;51.076;13.748;2023-03-14T08:19:10;15.50;68.30
1958;DHT22;979;51.076;13.748;2023-03-14T08:21:39;15.60;67.90
1958;DHT22;979;51.076;13.748;2023-03-14T08:24:15;15.70;67.60
1958;DHT22;979;51.076;13.748;2023-03-14T08:26:46;15.90;67.60
1958;DHT22;979;51.076;13.748;2023-03-14T08:29:44;16.00;67.40
1958;DHT22;979;51.076;13.748;2023-03-14T08:32:43;16.10;67.20
1958;DHT22;979;51.076;13.748;2023-03-14T08:59:51;16.30;64.30
1958;DHT22;979;51.076;13.748;2023-03-14T09:02:20;16.40;63.90
1958;DHT22;979;51.076;13.748;2023-03-14T09:04:50;16.30;63.60
1958;DHT22;979;51.076;13.748;2023-03-14T09:07:18;16.40;63.50
1958;DHT22;979;51.076;13.748;2023-03-14T09:09:47;16.40;63.50
1958;DHT22;979;51.076;13.748;2023-03-14T09:12:16;16.50;63.60
1958;DHT22;979;51.076;13.748;2023-03-14T09:14:45;16.60;63.40
1958;DHT22;979;51.076;13.748;2023-03-14T09:17:15;16.70;63.30
1958;DHT22;979;51.076;13.748;2023-03-14T09:19:44;16.70;63.10
1958;DHT22;979;51.076;13.748;2023-03-14T09:22:12;16.90;64.00
1958;DHT22;979;51.076;13.748;2023-03-14T09:24:41;16.90;62.80
1958;DHT22;979;51.076;13.748;2023-03-14T09:27:09;17.00;62.70
1958;DHT22;979;51.076;13.748;2023-03-14T09:29:38;17.00;62.50
1958;DHT22;979;51.076;13.748;2023-03-14T09:32:06;17.10;62.40
1958;DHT22;979;51.076;13.748;2023-03-14T09:34:37;17.10;62.30
1958;DHT22;979;51.076;13.748;2023-03-14T09:37:05;17.10;62.30
1958;DHT22;979;51.076;13.748;2023-03-14T09:39:34;16.90;62.00
1958;DHT22;979;51.076;13.748;2023-03-14T09:42:04;17.20;62.10
1958;DHT22;979;51.076;13.748;2023-03-14T09:44:37;17.10;62.40
1958;DHT22;979;51.076;13.748;2023-03-14T09:47:11;17.00;61.10
1958;DHT22;979;51.076;13.748;2023-03-14T09:49:42;16.70;60.80
1958;DHT22;979;51.076;13.748;2023-03-14T09:52:13;16.80;61.40
1958;DHT22;979;51.076;13.748;2023-03-14T09:54:45;16.70;61.00
1958;DHT22;979;51.076;13.748;2023-03-14T09:57:17;16.60;61.00
1958;DHT22;979;51.076;13.748;2023-03-14T09:59:47;16.60;61.10
1958;DHT22;979;51.076;13.748;2023-03-14T10:02:19;16.50;60.80
1958;DHT22;979;51.076;13.748;2023-03-14T10:04:51;16.40;60.80
1958;DHT22;979;51.076;13.748;2023-03-14T10:07:25;16.40;61.10
1958;DHT22;979;51.076;13.748;2023-03-14T10:09:58;16.40;60.90
1958;DHT22;979;51.076;13.748;2023-03-14T10:12:37;16.30;60.90
1958;DHT22;979;51.076;13.748;2023-03-14T10:15:08;16.30;61.00
1958;DHT22;979;51.076;13.748;2023-03-14T10:17:40;16.30;60.90
1958;DHT22;979;51.076;13.748;2023-03-14T10:20:27;16.30;61.10
1958;DHT22;979;51.076;13.748;2023-03-14T10:23:01;16.30;61.10
1958;DHT22;979;51.076;13.748;2023-03-14T10:25:32;16.20;61.00
1958;DHT22;979;51.076;13.748;2023-03-14T10:28:03;16.30;61.00
1958;DHT22;979;51.076;13.748;2023-03-14T10:30:39;16.30;60.90
1958;DHT22;979;51.076;13.748;2023-03-14T10:33:19;16.20;60.40
1958;DHT22;979;51.076;13.748;2023-03-14T10:35:59;16.20;60.30
1958;DHT22;979;51.076;13.748;2023-03-14T10:38:32;16.20;60.30
1958;DHT22;979;51.076;13.748;2023-03-14T10:41:02;16.20;60.30
1958;DHT22;979;51.076;13.748;2023-03-14T10:43:43;16.20;60.30
1958;DHT22;979;51.076;13.748;2023-03-14T10:46:15;16.20;60.60
1958;DHT22;979;51.076;13.748;2023-03-14T10:49:05;16.30;60.60
1958;DHT22;979;51.076;13.748;2023-03-14T11:34:55;16.70;59.70
1958;DHT22;979;51.076;13.748;2023-03-14T11:37:33;16.80;59.80
1958;DHT22;979;51.076;13.748;2023-03-14T11:40:20;16.90;59.70
1958;DHT22;979;51.076;13.748;2023-03-14T11:43:35;17.10;59.70
1958;DHT22;979;51.076;13.748;2023-03-14T11:47:37;17.20;59.20
1958;DHT22;979;51.076;13.748;2023-03-14T15:00:49;21.30;48.50
1958;DHT22;979;51.076;13.748;2023-03-14T15:03:19;21.20;48.90
1958;DHT22;979;51.076;13.748;2023-03-14T15:06:05;20.90;49.10
1958;DHT22;979;51.076;13.748;2023-03-14T15:08:45;21.00;49.00
1958;DHT22;979;51.076;13.748;2023-03-14T15:11:29;20.80;49.30
1958;DHT22;979;51.076;13.748;2023-03-14T15:14:03;20.70;49.10
1958;DHT22;979;51.076;13.748;2023-03-14T15:16:38;20.30;49.30
1958;DHT22;979;51.076;13.748;2023-03-14T15:19:26;20.00;49.50
1958;DHT22;979;51.076;13.748;2023-03-14T15:22:41;19.70;50.20
1958;DHT22;979;51.076;13.748;2023-03-14T15:25:24;19.20;50.10
1958;DHT22;979;51.076;13.748;2023-03-14T15:28:31;19.00;50.70
1958;DHT22;979;51.076;13.748;2023-03-14T15:31:24;18.90;51.00
1958;DHT22;979;51.076;13.748;2023-03-14T15:34:03;18.80;51.40
1958;DHT22;979;51.076;13.748;2023-03-14T15:36:44;18.70;52.00
1958;DHT22;979;51.076;13.748;2023-03-14T15:39:27;18.60;51.90
1958;DHT22;979;51.076;13.748;2023-03-14T15:42:07;18.40;52.10
1958;DHT22;979;51.076;13.748;2023-03-14T15:44:39;18.10;52.00
1958;DHT22;979;51.076;13.748;2023-03-14T15:47:27;18.00;52.20
1958;DHT22;979;51.076;13.748;2023-03-14T15:50:04;18.30;52.50
1958;DHT22;979;51.076;13.748;2023-03-14T15:52:58;18.10;53.30
1958;DHT22;979;51.076;13.748;2023-03-14T15:55:41;18.10;52.80
1958;DHT22;979;51.076;13.748;2023-03-14T15:58:16;18.00;53.30
1958;DHT22;979;51.076;13.748;2023-03-14T16:01:03;17.90;53.00
1958;DHT22;979;51.076;13.748;2023-03-14T16:04:14;17.80;53.20
1958;DHT22;979;51.076;13.748;2023-03-14T16:06:32;17.80;53.50
1958;DHT22;979;51.076;13.748;2023-03-14T16:09:03;17.60;53.70
1958;DHT22;979;51.076;13.748;2023-03-14T16:11:36;17.40;53.70
1958;DHT22;979;51.076;13.748;2023-03-14T16:14:05;17.50;53.80
1958;DHT22;979;51.076;13.748;2023-03-14T16:17:09;17.50;53.80
1958;DHT22;979;51.076;13.748;2023-03-14T16:20:07;17.30;54.00
1958;DHT22;979;51.076;13.748;2023-03-14T16:23:21;17.30;54.30
1958;DHT22;979;51.076;13.748;2023-03-14T16:26:22;17.10;54.90
1958;DHT22;979;51.076;13.748;2023-03-14T16:29:07;16.90;55.00
1958;DHT22;979;51.076;13.748;2023-03-14T16:32:07;16.40;55.90
1958;DHT22;979;51.076;13.748;2023-03-14T16:35:14;16.10;57.80
1958;DHT22;979;51.076;13.748;2023-03-14T16:37:51;15.60;59.90
1958;DHT22;979;51.076;13.748;2023-03-14T16:40:39;15.10;60.80
1958;DHT22;979;51.076;13.748;2023-03-14T16:43:15;14.60;62.40
1958;DHT22;979;51.076;13.748;2023-03-14T16:46:05;14.00;62.90
1958;DHT22;979;51.076;13.748;2023-03-14T16:48:43;13.60;64.30
1958;DHT22;979;51.076;13.748;2023-03-14T16:51:19;12.70;62.50
1958;DHT22;979;51.076;13.748;2023-03-14T16:53:58;11.60;63.40
1958;DHT22;979;51.076;13.748;2023-03-14T16:56:42;10.90;65.00
1958;DHT22;979;51.076;13.748;2023-03-14T16:59:15;10.40;65.70
1958;DHT22;979;51.076;13.748;2023-03-14T17:01:44;10.00;66.00
1958;DHT22;979;51.076;13.748;2023-03-14T17:04:15;9.60;68.00
1958;DHT22;979;51.076;13.748;2023-03-14T17:06:44;9.40;69.10
1958;DHT22;979;51.076;13.748;2023-03-14T17:09:14;9.20;70.10
1958;DHT22;979;51.076;13.748;2023-03-14T17:11:51;9.00;70.90
1958;DHT22;979;51.076;13.748;2023-03-14T17:14:22;8.90;71.50
1958;DHT22;979;51.076;13.748;2023-03-14T17:16:56;8.80;72.30
1958;DHT22;979;51.076;13.748;2023-03-14T17:19:27;8.70;73.00
1958;DHT22;979;51.076;13.748;2023-03-14T17:22:01;8.90;73.80
1958;DHT22;979;51.076;13.748;2023-03-14T17:24:48;8.60;73.80
1958;DHT22;979;51.076;13.748;2023-03-14T17:27:25;8.50;74.50
1958;DHT22;979;51.076;13.748;2023-03-14T17:30:10;8.50;75.00
1958;DHT22;979;51.076;13.748;2023-03-14T17:32:40;8.30;74.80
1958;DHT22;979;51.076;13.748;2023-03-14T17:35:29;8.20;75.20
1958;DHT22;979;51.076;13.748;2023-03-14T17:38:12;8.20;75.40
1958;DHT22;979;51.076;13.748;2023-03-14T17:40:48;7.80;74.80
1958;DHT22;979;51.076;13.748;2023-03-14T17:43:28;7.40;73.90
1958;DHT22;979;51.076;13.748;2023-03-14T17:46:03;6.70;73.30
1958;DHT22;979;51.076;13.748;2023-03-14T17:48:41;6.50;73.80
1958;DHT22;979;51.076;13.748;2023-03-14T17:51:23;6.10;74.00
1958;DHT22;979;51.076;13.748;2023-03-14T17:53:53;5.80;74.40
1958;DHT22;979;51.076;13.748;2023-03-14T17:56:32;5.80;75.10
1958;DHT22;979;51.076;13.748;2023-03-14T17:59:13;5.60;75.30
1958;DHT22;979;51.076;13.748;2023-03-14T18:01:45;5.40;75.40
1958;DHT22;979;51.076;13.748;2023-03-14T18:04:35;5.40;75.70
1958;DHT22;979;51.076;13.748;2023-03-14T18:07:45;5.30;76.00
1958;DHT22;979;51.076;13.748;2023-03-14T18:19:14;5.10;76.60
1958;DHT22;979;51.076;13.748;2023-03-14T18:21:46;5.30;77.50
1958;DHT22;979;51.076;13.748;2023-03-14T18:24:37;5.00;77.30
1958;DHT22;979;51.076;13.748;2023-03-14T18:27:11;5.10;77.50
1958;DHT22;979;51.076;13.748;2023-03-14T18:29:46;5.10;77.50
1958;DHT22;979;51.076;13.748;2023-03-14T18:32:21;5.10;77.90
1958;DHT22;979;51.076;13.748;2023-03-14T18:35:02;5.10;78.30
1958;DHT22;979;51.076;13.748;2023-03-14T18:37:53;5.30;78.80
1958;DHT22;979;51.076;13.748;2023-03-14T18:40:29;5.30;78.70
1958;DHT22;979;51.076;13.748;2023-03-14T18:43:07;5.20;79.00
1958;DHT22;979;51.076;13.748;2023-03-14T18:45:43;5.20;79.10
1958;DHT22;979;51.076;13.748;2023-03-14T18:48:25;5.30;79.60
1958;DHT22;979;51.076;13.748;2023-03-14T18:51:15;5.20;79.40
1958;DHT22;979;51.076;13.748;2023-03-14T18:54:00;5.20;79.90
1958;DHT22;979;51.076;13.748;2023-03-14T18:56:50;5.40;80.20
1958;DHT22;979;51.076;13.748;2023-03-14T18:59:57;5.20;80.10
1958;DHT22;979;51.076;13.748;2023-03-14T19:07:54;5.20;81.10
1958;DHT22;979;51.076;13.748;2023-03-14T19:15:10;5.20;81.60
1958;DHT22;979;51.076;13.748;2023-03-14T19:17:44;5.40;82.40
1958;DHT22;979;51.076;13.748;2023-03-14T19:20:19;5.40;83.00
1958;DHT22;979;51.076;13.748;2023-03-14T19:23:32;5.40;83.40
1958;DHT22;979;51.076;13.748;2023-03-14T19:26:16;5.60;83.50
1958;DHT22;979;51.076;13.748;2023-03-14T19:28:51;5.60;84.20
1958;DHT22;979;51.076;13.748;2023-03-14T19:31:22;5.70;84.40
1958;DHT22;979;51.076;13.748;2023-03-14T19:34:04;5.70;84.80
1958;DHT22;979;51.076;13.748;2023-03-14T19:41:15;6.00;85.20
1958;DHT22;979;51.076;13.748;2023-03-14T19:43:59;6.00;85.70
1958;DHT22;979;51.076;13.748;2023-03-14T19:46:31;6.00;85.60
1958;DHT22;979;51.076;13.748;2023-03-14T19:49:26;6.10;85.90
1958;DHT22;979;51.076;13.748;2023-03-14T19:52:01;6.10;86.10
1958;DHT22;979;51.076;13.748;2023-03-14T19:54:48;6.10;86.20
1958;DHT22;979;51.076;13.748;2023-03-14T19:57:35;6.10;86.10
1958;DHT22;979;51.076;13.748;2023-03-14T20:00:11;6.10;86.50
1958;DHT22;979;51.076;13.748;2023-03-14T20:02:49;6.10;86.10
1958;DHT22;979;51.076;13.748;2023-03-14T20:05:24;6.10;86.20
1958;DHT22;979;51.076;13.748;2023-03-14T20:07:58;6.10;86.70
1958;DHT22;979;51.076;13.748;2023-03-14T20:10:31;6.00;86.50
1958;DHT22;979;51.076;13.748;2023-03-14T20:13:23;6.00;86.30
1958;DHT22;979;51.076;13.748;2023-03-14T20:16:12;5.90;86.70
1958;DHT22;979;51.076;13.748;2023-03-14T20:18:53;5.90;86.50
1958;DHT22;979;51.076;13.748;2023-03-14T20:21:43;6.10;86.60
1958;DHT22;979;51.076;13.748;2023-03-14T20:24:17;5.70;86.10
1958;DHT22;979;51.076;13.748;2023-03-14T20:26:51;5.90;86.50
1958;DHT22;979;51.076;13.748;2023-03-14T20:29:27;5.90;86.80
1958;DHT22;979;51.076;13.748;2023-03-14T20:32:22;5.80;87.70
1958;DHT22;979;51.076;13.748;2023-03-14T20:35:04;5.80;86.80
1958;DHT22;979;51.076;13.748;2023-03-14T20:37:37;5.80;86.80
1958;DHT22;979;51.076;13.748;2023-03-14T20:40:10;5.80;86.70
1958;DHT22;979;51.076;13.748;2023-03-14T20:42:40;6.10;87.10
1958;DHT22;979;51.076;13.748;2023-03-14T20:45:12;5.80;87.00
1958;DHT22;979;51.076;13.748;2023-03-14T20:47:48;5.60;86.80
1958;DHT22;979;51.076;13.748;2023-03-14T20:50:17;5.60;86.50
1958;DHT22;979;51.076;13.748;2023-03-14T20:52:51;5.70;86.80
1958;DHT22;979;51.076;13.748;2023-03-14T20:55:38;5.50;86.40
1958;DHT22;979;51.076;13.748;2023-03-14T20:58:13;5.70;86.80
1958;DHT22;979;51.076;13.748;2023-03-14T21:00:48;5.60;86.90
1958;DHT22;979;51.076;13.748;2023-03-14T21:03:18;5.60;86.80
1958;DHT22;979;51.076;13.748;2023-03-14T21:06:08;5.60;86.70
1958;DHT22;979;51.076;13.748;2023-03-14T21:08:44;5.60;86.90
1958;DHT22;979;51.076;13.748;2023-03-14T21:11:41;5.50;87.20
1958;DHT22;979;51.076;13.748;2023-03-14T21:14:17;5.50;86.90
1958;DHT22;979;51.076;13.748;2023-03-14T21:16:51;5.50;86.70
1958;DHT22;979;51.076;13.748;2023-03-14T21:19:27;5.50;87.30
1958;DHT22;979;51.076;13.748;2023-03-14T21:22:07;5.40;86.80
1958;DHT22;979;51.076;13.748;2023-03-14T21:24:43;5.70;87.20
1958;DHT22;979;51.076;13.748;2023-03-14T21:27:15;5.40;87.10
1958;DHT22;979;51.076;13.748;2023-03-14T21:29:50;5.40;87.40
1958;DHT22;979;51.076;13.748;2023-03-14T21:32:28;5.40;86.80
1958;DHT22;979;51.076;13.748;2023-03-14T21:35:05;5.40;86.80
1958;DHT22;979;51.076;13.748;2023-03-14T21:37:42;5.30;86.30
1958;DHT22;979;51.076;13.748;2023-03-14T21:41:03;5.30;86.60
1958;DHT22;979;51.076;13.748;2023-03-14T21:43:53;5.30;86.20
1958;DHT22;979;51.076;13.748;2023-03-14T21:46:41;5.50;86.50
1958;DHT22;979;51.076;13.748;2023-03-14T21:49:23;5.20;86.50
1958;DHT22;979;51.076;13.748;2023-03-14T21:52:13;5.20;86.50
1958;DHT22;979;51.076;13.748;2023-03-14T21:54:47;5.20;86.50
1958;DHT22;979;51.076;13.748;2023-03-14T21:57:29;5.20;86.40
1958;DHT22;979;51.076;13.748;2023-03-14T22:00:03;5.30;86.30
1958;DHT22;979;51.076;13.748;2023-03-14T22:02:39;5.10;86.10
1958;DHT22;979;51.076;13.748;2023-03-14T22:05:36;5.10;86.30
1958;DHT22;979;51.076;13.748;2023-03-14T22:08:05;5.30;86.60
1958;DHT22;979;51.076;13.748;2023-03-14T22:10:41;5.20;86.00
1958;DHT22;979;51.076;13.748;2023-03-14T22:13:13;5.00;85.80
1958;DHT22;979;51.076;13.748;2023-03-14T22:15:49;4.90;85.80
1958;DHT22;979;51.076;13.748;2023-03-14T22:18:24;5.20;86.30
1958;DHT22;979;51.076;13.748;2023-03-14T22:21:08;5.00;86.00
1958;DHT22;979;51.076;13.748;2023-03-14T22:23:37;5.20;86.40
1958;DHT22;979;51.076;13.748;2023-03-14T22:26:16;4.90;86.20
1958;DHT22;979;51.076;13.748;2023-03-14T22:28:53;4.90;86.50
1958;DHT22;979;51.076;13.748;2023-03-14T22:31:30;4.80;86.30
1958;DHT22;979;51.076;13.748;2023-03-14T22:34:03;4.90;86.50
1958;DHT22;979;51.076;13.748;2023-03-14T22:36:36;4.90;86.40
1958;DHT22;979;51.076;13.748;2023-03-14T22:39:07;4.80;85.90
1958;DHT22;979;51.076;13.748;2023-03-14T22:41:40;4.80;86.30
1958;DHT22;979;51.076;13.748;2023-03-14T22:44:18;4.80;86.20
1958;DHT22;979;51.076;13.748;2023-03-14T22:46:54;4.80;86.10
1958;DHT22;979;51.076;13.748;2023-03-14T22:49:27;5.00;86.50
1958;DHT22;979;51.076;13.748;2023-03-14T22:52:06;4.80;85.90
1958;DHT22;979;51.076;13.748;2023-03-14T22:54:35;5.10;86.20
1958;DHT22;979;51.076;13.748;2023-03-14T22:57:07;4.80;86.10
1958;DHT22;979;51.076;13.748;2023-03-14T22:59:41;4.80;86.20
1958;DHT22;979;51.076;13.748;2023-03-14T23:02:15;4.80;86.20
1958;DHT22;979;51.076;13.748;2023-03-14T23:04:47;4.80;86.10
1958;DHT22;979;51.076;13.748;2023-03-14T23:07:21;4.80;86.10
1958;DHT22;979;51.076;13.748;2023-03-14T23:09:50;4.80;86.40
1958;DHT22;979;51.076;13.748;2023-03-14T23:12:19;4.70;86.10
1958;DHT22;979;51.076;13.748;2023-03-14T23:14:47;4.90;86.40
1958;DHT22;979;51.076;13.748;2023-03-14T23:17:16;4.80;86.10
1958;DHT22;979;51.076;13.748;2023-03-14T23:19:47;4.70;86.20
1958;DHT22;979;51.076;13.748;2023-03-14T23:22:16;4.70;86.70
1958;DHT22;979;51.076;13.748;2023-03-14T23:24:49;4.60;86.30
1958;DHT22;979;51.076;13.748;2023-03-14T23:27:18;4.60;86.30
1958;DHT22;979;51.076;13.748;2023-03-14T23:29:47;4.60;86.40
1958;DHT22;979;51.076;13.748;2023-03-14T23:32:16;4.60;86.40
1958;DHT22;979;51.076;13.748;2023-03-14T23:34:47;4.60;87.10
1958;DHT22;979;51.076;13.748;2023-03-14T23:37:17;4.60;86.30
1958;DHT22;979;51.076;13.748;2023-03-14T23:39:46;4.50;86.10
1958;DHT22;979;51.076;13.748;2023-03-14T23:42:18;4.50;86.30
1958;DHT22;979;51.076;13.748;2023-03-14T23:44:47;4.50;86.40
1958;DHT22;979;51.076;13.748;2023-03-14T23:47:15;4.50;86.20
1958;DHT22;979;51.076;13.748;2023-03-14T23:49:45;4.50;86.50
1958;DHT22;979;51.076;13.748;2023-03-14T23:52:14;4.40;86.50
1958;DHT22;979;51.076;13.748;2023-03-14T23:54:43;4.40;86.40
1958;DHT22;979;51.076;13.748;2023-03-14T23:57:12;4.40;86.30
1958;DHT22;979;51.076;13.748;2023-03-14T23:59:42;4.40;86.50
